Huvudsida
METAR-TAF:

METAR-TAF

Flygplatser :

Shanghai-Hongqiao, Kina

Shanghai Hongqiao International Airport

latitud: 31-10N, longitud: 121-26E, höjd: 7 m

Aktuellt väderrapport

Denna rapport gjordes för 20 minuter sedan, klockan 22:00 UTC
Vind 4 kt från syd/sydost
Temperatur 1°C
Fuktighet 100%
Tryck 1024 hPa
Sikt: 3000 m
fuktdis

METAR: ZSSS 222200Z 16002MPS 3000 BR NSC 01/01 Q1024 NOSIG

Tid: 06:20 (22:20 UTC)

Väderprognos

Denna rapport gjordes för 7 timmar och 8 minuter sedan, klockan 15:12 UTC
Prognos gäller från 22 kl. 18 UTC till 23 kl. 18 UTC
Vind 8 kt från syd/sydväst
Sikt: 3500 m
Brutna moln på en höjd av 2000 ft
fuktdis

TAF: ZSSS 221512Z 2218/2318 20004MPS 3500 BR BKN020 TX15/2306Z TN03/2221Z

Aktuella väderrapporter och prognoser från 4000 flygplatser (METAR- och TAF-rapporter).

De tillgängliga stationerna syns som gula och röda prickar på kartan.

För musen över prickarna för att se namnen på stationerna.

Klicka sedan för att få väderrapporter och prognoser.

För att ändra kartan: Klicka på de gröna knapparna med ett svart kors på för att zooma in; den gröna knappen med ett streck på för att zooma ut; eller på de gröna pilarna för angränsande kartor.


METAR-TAF: